sensor_id;sensor_type;location;lat;lon;timestamp;P1;P2;P0
52290;PMS5003;39663;45.432;28.050;2023-08-31T00:00:31;3.0;3.0;
52290;PMS5003;39663;45.432;28.050;2023-08-31T00:01:03;3.0;3.0;
52290;PMS5003;39663;45.432;28.050;2023-08-31T00:01:34;2.0;2.0;
52290;PMS5003;39663;45.432;28.050;2023-08-31T00:02:06;3.0;3.0;
52290;PMS5003;39663;45.432;28.050;2023-08-31T00:02:38;4.0;3.0;
52290;PMS5003;39663;45.432;28.050;2023-08-31T00:03:10;3.0;3.0;
52290;PMS5003;39663;45.432;28.050;2023-08-31T00:03:43;3.0;3.0;
52290;PMS5003;39663;45.432;28.050;2023-08-31T00:04:14;4.0;4.0;
52290;PMS5003;39663;45.432;28.050;2023-08-31T00:04:46;3.0;3.0;
52290;PMS5003;39663;45.432;28.050;2023-08-31T00:05:18;6.0;4.0;
52290;PMS5003;39663;45.432;28.050;2023-08-31T00:05:50;3.0;3.0;
52290;PMS5003;39663;45.432;28.050;2023-08-31T00:06:21;3.0;3.0;
52290;PMS5003;39663;45.432;28.050;2023-08-31T00:06:53;3.0;3.0;
52290;PMS5003;39663;45.432;28.050;2023-08-31T00:07:25;4.0;3.0;
52290;PMS5003;39663;45.432;28.050;2023-08-31T00:07:56;3.0;3.0;
52290;PMS5003;39663;45.432;28.050;2023-08-31T00:08:28;5.0;4.0;
52290;PMS5003;39663;45.432;28.050;2023-08-31T00:08:59;4.0;4.0;
52290;PMS5003;39663;45.432;28.050;2023-08-31T00:09:31;4.0;3.0;
52290;PMS5003;39663;45.432;28.050;2023-08-31T00:10:03;3.0;3.0;
52290;PMS5003;39663;45.432;28.050;2023-08-31T00:10:35;5.0;4.0;
52290;PMS5003;39663;45.432;28.050;2023-08-31T00:11:07;3.0;3.0;
52290;PMS5003;39663;45.432;28.050;2023-08-31T00:11:39;6.0;4.0;
52290;PMS5003;39663;45.432;28.050;2023-08-31T00:12:10;3.0;3.0;
52290;PMS5003;39663;45.432;28.050;2023-08-31T00:12:42;4.0;2.0;
52290;PMS5003;39663;45.432;28.050;2023-08-31T00:13:13;2.0;2.0;
52290;PMS5003;39663;45.432;28.050;2023-08-31T00:13:45;5.0;3.0;
52290;PMS5003;39663;45.432;28.050;2023-08-31T00:14:16;2.0;2.0;
52290;PMS5003;39663;45.432;28.050;2023-08-31T00:14:49;2.0;2.0;
52290;PMS5003;39663;45.432;28.050;2023-08-31T00:15:21;3.0;3.0;
52290;PMS5003;39663;45.432;28.050;2023-08-31T00:15:53;3.0;3.0;
52290;PMS5003;39663;45.432;28.050;2023-08-31T00:16:26;3.0;3.0;
52290;PMS5003;39663;45.432;28.050;2023-08-31T00:16:57;2.0;2.0;
52290;PMS5003;39663;45.432;28.050;2023-08-31T00:17:29;3.0;3.0;
52290;PMS5003;39663;45.432;28.050;2023-08-31T00:18:01;3.0;3.0;
52290;PMS5003;39663;45.432;28.050;2023-08-31T00:18:33;4.0;4.0;
52290;PMS5003;39663;45.432;28.050;2023-08-31T00:19:05;4.0;4.0;
52290;PMS5003;39663;45.432;28.050;2023-08-31T00:19:37;2.0;2.0;
52290;PMS5003;39663;45.432;28.050;2023-08-31T00:20:09;4.0;4.0;
52290;PMS5003;39663;45.432;28.050;2023-08-31T00:20:41;5.0;3.0;
52290;PMS5003;39663;45.432;28.050;2023-08-31T00:21:13;4.0;4.0;
52290;PMS5003;39663;45.432;28.050;2023-08-31T00:21:45;3.0;3.0;
52290;PMS5003;39663;45.432;28.050;2023-08-31T00:22:16;3.0;3.0;
52290;PMS5003;39663;45.432;28.050;2023-08-31T00:22:48;4.0;4.0;
52290;PMS5003;39663;45.432;28.050;2023-08-31T00:23:20;2.0;2.0;
52290;PMS5003;39663;45.432;28.050;2023-08-31T00:23:52;4.0;4.0;
52290;PMS5003;39663;45.432;28.050;2023-08-31T00:24:24;6.0;4.0;
52290;PMS5003;39663;45.432;28.050;2023-08-31T00:24:56;5.0;5.0;
52290;PMS5003;39663;45.432;28.050;2023-08-31T00:25:28;4.0;4.0;
52290;PMS5003;39663;45.432;28.050;2023-08-31T00:25:59;3.0;3.0;
52290;PMS5003;39663;45.432;28.050;2023-08-31T00:26:31;4.0;4.0;
52290;PMS5003;39663;45.432;28.050;2023-08-31T00:27:02;5.0;4.0;
52290;PMS5003;39663;45.432;28.050;2023-08-31T00:27:34;5.0;4.0;
52290;PMS5003;39663;45.432;28.050;2023-08-31T00:28:06;3.0;2.0;
52290;PMS5003;39663;45.432;28.050;2023-08-31T00:28:37;4.0;4.0;
52290;PMS5003;39663;45.432;28.050;2023-08-31T00:29:09;4.0;4.0;
52290;PMS5003;39663;45.432;28.050;2023-08-31T00:29:41;2.0;2.0;
52290;PMS5003;39663;45.432;28.050;2023-08-31T00:30:13;5.0;3.0;
52290;PMS5003;39663;45.432;28.050;2023-08-31T00:30:44;4.0;4.0;
52290;PMS5003;39663;45.432;28.050;2023-08-31T00:31:16;3.0;3.0;
52290;PMS5003;39663;45.432;28.050;2023-08-31T00:31:47;3.0;3.0;
52290;PMS5003;39663;45.432;28.050;2023-08-31T00:32:19;4.0;4.0;
52290;PMS5003;39663;45.432;28.050;2023-08-31T00:32:51;3.0;3.0;
52290;PMS5003;39663;45.432;28.050;2023-08-31T00:33:25;3.0;3.0;
52290;PMS5003;39663;45.432;28.050;2023-08-31T00:33:57;4.0;4.0;
52290;PMS5003;39663;45.432;28.050;2023-08-31T00:34:28;5.0;4.0;
52290;PMS5003;39663;45.432;28.050;2023-08-31T00:35:00;4.0;4.0;
52290;PMS5003;39663;45.432;28.050;2023-08-31T00:35:33;4.0;4.0;
52290;PMS5003;39663;45.432;28.050;2023-08-31T00:36:05;4.0;4.0;
52290;PMS5003;39663;45.432;28.050;2023-08-31T00:36:36;3.0;3.0;
52290;PMS5003;39663;45.432;28.050;2023-08-31T00:37:08;5.0;5.0;
52290;PMS5003;39663;45.432;28.050;2023-08-31T00:37:40;3.0;3.0;
52290;PMS5003;39663;45.432;28.050;2023-08-31T00:38:12;2.0;2.0;
52290;PMS5003;39663;45.432;28.050;2023-08-31T00:38:44;4.0;4.0;
52290;PMS5003;39663;45.432;28.050;2023-08-31T00:39:15;3.0;3.0;
52290;PMS5003;39663;45.432;28.050;2023-08-31T00:39:47;4.0;4.0;
52290;PMS5003;39663;45.432;28.050;2023-08-31T00:40:19;4.0;4.0;
52290;PMS5003;39663;45.432;28.050;2023-08-31T00:40:50;3.0;3.0;
52290;PMS5003;39663;45.432;28.050;2023-08-31T00:41:22;5.0;5.0;
52290;PMS5003;39663;45.432;28.050;2023-08-31T00:41:54;5.0;5.0;
52290;PMS5003;39663;45.432;28.050;2023-08-31T00:42:25;3.0;3.0;
52290;PMS5003;39663;45.432;28.050;2023-08-31T00:42:57;6.0;4.0;
52290;PMS5003;39663;45.432;28.050;2023-08-31T00:43:29;3.0;3.0;
52290;PMS5003;39663;45.432;28.050;2023-08-31T00:44:01;3.0;3.0;
52290;PMS5003;39663;45.432;28.050;2023-08-31T00:44:32;3.0;3.0;
52290;PMS5003;39663;45.432;28.050;2023-08-31T00:45:05;6.0;5.0;
52290;PMS5003;39663;45.432;28.050;2023-08-31T00:45:37;3.0;3.0;
52290;PMS5003;39663;45.432;28.050;2023-08-31T00:46:09;4.0;3.0;
52290;PMS5003;39663;45.432;28.050;2023-08-31T00:46:41;4.0;4.0;
52290;PMS5003;39663;45.432;28.050;2023-08-31T00:47:12;5.0;3.0;
52290;PMS5003;39663;45.432;28.050;2023-08-31T00:47:44;3.0;3.0;
52290;PMS5003;39663;45.432;28.050;2023-08-31T00:48:17;3.0;3.0;
52290;PMS5003;39663;45.432;28.050;2023-08-31T00:48:49;3.0;3.0;
52290;PMS5003;39663;45.432;28.050;2023-08-31T00:49:20;3.0;3.0;
52290;PMS5003;39663;45.432;28.050;2023-08-31T00:49:52;3.0;3.0;
52290;PMS5003;39663;45.432;28.050;2023-08-31T00:50:23;4.0;4.0;
52290;PMS5003;39663;45.432;28.050;2023-08-31T00:51:00;4.0;3.0;
52290;PMS5003;39663;45.432;28.050;2023-08-31T00:51:32;2.0;2.0;
52290;PMS5003;39663;45.432;28.050;2023-08-31T00:52:05;4.0;4.0;
52290;PMS5003;39663;45.432;28.050;2023-08-31T00:52:37;4.0;4.0;
52290;PMS5003;39663;45.432;28.050;2023-08-31T00:53:08;3.0;3.0;
52290;PMS5003;39663;45.432;28.050;2023-08-31T00:53:40;3.0;3.0;
52290;PMS5003;39663;45.432;28.050;2023-08-31T00:54:12;3.0;3.0;
52290;PMS5003;39663;45.432;28.050;2023-08-31T00:54:45;4.0;4.0;
52290;PMS5003;39663;45.432;28.050;2023-08-31T00:55:17;4.0;4.0;
52290;PMS5003;39663;45.432;28.050;2023-08-31T00:55:49;2.0;2.0;
52290;PMS5003;39663;45.432;28.050;2023-08-31T00:56:21;3.0;3.0;
52290;PMS5003;39663;45.432;28.050;2023-08-31T00:56:53;2.0;2.0;
52290;PMS5003;39663;45.432;28.050;2023-08-31T00:57:25;2.0;2.0;
52290;PMS5003;39663;45.432;28.050;2023-08-31T00:57:58;3.0;3.0;
52290;PMS5003;39663;45.432;28.050;2023-08-31T00:58:30;3.0;3.0;
52290;PMS5003;39663;45.432;28.050;2023-08-31T00:59:01;3.0;3.0;
52290;PMS5003;39663;45.432;28.050;2023-08-31T00:59:33;3.0;3.0;
52290;PMS5003;39663;45.432;28.050;2023-08-31T01:00:05;3.0;3.0;
52290;PMS5003;39663;45.432;28.050;2023-08-31T01:00:40;4.0;4.0;
52290;PMS5003;39663;45.432;28.050;2023-08-31T01:01:18;3.0;3.0;
52290;PMS5003;39663;45.432;28.050;2023-08-31T01:01:59;5.0;5.0;
52290;PMS5003;39663;45.432;28.050;2023-08-31T01:02:37;2.0;2.0;
52290;PMS5003;39663;45.432;28.050;2023-08-31T01:03:27;4.0;4.0;
52290;PMS5003;39663;45.432;28.050;2023-08-31T01:04:10;3.0;3.0;
52290;PMS5003;39663;45.432;28.050;2023-08-31T01:04:48;3.0;3.0;
52290;PMS5003;39663;45.432;28.050;2023-08-31T01:05:31;3.0;3.0;
52290;PMS5003;39663;45.432;28.050;2023-08-31T01:06:10;4.0;2.0;
52290;PMS5003;39663;45.432;28.050;2023-08-31T01:06:56;4.0;4.0;
52290;PMS5003;39663;45.432;28.050;2023-08-31T01:07:37;4.0;4.0;
52290;PMS5003;39663;45.432;28.050;2023-08-31T01:08:21;3.0;3.0;
52290;PMS5003;39663;45.432;28.050;2023-08-31T01:09:05;3.0;3.0;
52290;PMS5003;39663;45.432;28.050;2023-08-31T01:09:48;2.0;2.0;
52290;PMS5003;39663;45.432;28.050;2023-08-31T01:10:29;3.0;3.0;
52290;PMS5003;39663;45.432;28.050;2023-08-31T01:11:10;3.0;3.0;
52290;PMS5003;39663;45.432;28.050;2023-08-31T01:11:51;4.0;4.0;
52290;PMS5003;39663;45.432;28.050;2023-08-31T01:12:29;4.0;4.0;
52290;PMS5003;39663;45.432;28.050;2023-08-31T01:13:07;5.0;5.0;
52290;PMS5003;39663;45.432;28.050;2023-08-31T01:13:45;4.0;4.0;
52290;PMS5003;39663;45.432;28.050;2023-08-31T01:14:23;4.0;4.0;
52290;PMS5003;39663;45.432;28.050;2023-08-31T01:14:59;3.0;3.0;
52290;PMS5003;39663;45.432;28.050;2023-08-31T01:15:34;3.0;3.0;
52290;PMS5003;39663;45.432;28.050;2023-08-31T01:16:06;3.0;3.0;
52290;PMS5003;39663;45.432;28.050;2023-08-31T01:16:39;5.0;3.0;
52290;PMS5003;39663;45.432;28.050;2023-08-31T01:17:12;4.0;4.0;
52290;PMS5003;39663;45.432;28.050;2023-08-31T01:17:47;2.0;2.0;
52290;PMS5003;39663;45.432;28.050;2023-08-31T01:18:23;4.0;4.0;
52290;PMS5003;39663;45.432;28.050;2023-08-31T01:18:56;4.0;4.0;
52290;PMS5003;39663;45.432;28.050;2023-08-31T01:19:32;3.0;3.0;
52290;PMS5003;39663;45.432;28.050;2023-08-31T01:20:14;3.0;3.0;
52290;PMS5003;39663;45.432;28.050;2023-08-31T01:20:52;4.0;4.0;
52290;PMS5003;39663;45.432;28.050;2023-08-31T01:21:33;3.0;3.0;
52290;PMS5003;39663;45.432;28.050;2023-08-31T01:22:11;6.0;6.0;
52290;PMS5003;39663;45.432;28.050;2023-08-31T01:22:51;5.0;5.0;
52290;PMS5003;39663;45.432;28.050;2023-08-31T01:24:13;5.0;4.0;
52290;PMS5003;39663;45.432;28.050;2023-08-31T01:24:45;4.0;4.0;
52290;PMS5003;39663;45.432;28.050;2023-08-31T01:25:17;2.0;2.0;
52290;PMS5003;39663;45.432;28.050;2023-08-31T01:25:49;5.0;5.0;
52290;PMS5003;39663;45.432;28.050;2023-08-31T01:26:21;4.0;4.0;
52290;PMS5003;39663;45.432;28.050;2023-08-31T01:26:54;3.0;3.0;
52290;PMS5003;39663;45.432;28.050;2023-08-31T01:27:26;4.0;4.0;
52290;PMS5003;39663;45.432;28.050;2023-08-31T01:27:59;2.0;2.0;
52290;PMS5003;39663;45.432;28.050;2023-08-31T01:28:31;3.0;3.0;
52290;PMS5003;39663;45.432;28.050;2023-08-31T01:29:03;2.0;1.0;
52290;PMS5003;39663;45.432;28.050;2023-08-31T01:29:34;4.0;3.0;
52290;PMS5003;39663;45.432;28.050;2023-08-31T01:30:06;4.0;2.0;
52290;PMS5003;39663;45.432;28.050;2023-08-31T01:30:38;2.0;2.0;
52290;PMS5003;39663;45.432;28.050;2023-08-31T01:31:11;2.0;2.0;
52290;PMS5003;39663;45.432;28.050;2023-08-31T01:31:42;2.0;2.0;
52290;PMS5003;39663;45.432;28.050;2023-08-31T01:32:14;6.0;4.0;
52290;PMS5003;39663;45.432;28.050;2023-08-31T01:32:46;4.0;4.0;
52290;PMS5003;39663;45.432;28.050;2023-08-31T01:33:18;3.0;3.0;
52290;PMS5003;39663;45.432;28.050;2023-08-31T01:33:50;4.0;4.0;
52290;PMS5003;39663;45.432;28.050;2023-08-31T01:34:21;4.0;4.0;
52290;PMS5003;39663;45.432;28.050;2023-08-31T01:34:53;3.0;3.0;
52290;PMS5003;39663;45.432;28.050;2023-08-31T01:35:25;2.0;2.0;
52290;PMS5003;39663;45.432;28.050;2023-08-31T01:35:59;2.0;2.0;
52290;PMS5003;39663;45.432;28.050;2023-08-31T01:36:36;4.0;4.0;
52290;PMS5003;39663;45.432;28.050;2023-08-31T01:37:15;5.0;4.0;
52290;PMS5003;39663;45.432;28.050;2023-08-31T01:37:59;3.0;3.0;
52290;PMS5003;39663;45.432;28.050;2023-08-31T01:38:33;4.0;3.0;
52290;PMS5003;39663;45.432;28.050;2023-08-31T01:39:10;4.0;4.0;
52290;PMS5003;39663;45.432;28.050;2023-08-31T01:39:46;6.0;2.0;
52290;PMS5003;39663;45.432;28.050;2023-08-31T01:40:25;5.0;4.0;
52290;PMS5003;39663;45.432;28.050;2023-08-31T01:41:03;4.0;4.0;
52290;PMS5003;39663;45.432;28.050;2023-08-31T01:41:37;8.0;8.0;
52290;PMS5003;39663;45.432;28.050;2023-08-31T01:42:15;3.0;3.0;
52290;PMS5003;39663;45.432;28.050;2023-08-31T01:42:47;5.0;5.0;
52290;PMS5003;39663;45.432;28.050;2023-08-31T01:43:21;3.0;3.0;
52290;PMS5003;39663;45.432;28.050;2023-08-31T01:43:53;4.0;4.0;
52290;PMS5003;39663;45.432;28.050;2023-08-31T01:44:26;3.0;3.0;
52290;PMS5003;39663;45.432;28.050;2023-08-31T01:45:01;4.0;4.0;
52290;PMS5003;39663;45.432;28.050;2023-08-31T01:45:33;3.0;2.0;
52290;PMS5003;39663;45.432;28.050;2023-08-31T01:46:06;4.0;4.0;
52290;PMS5003;39663;45.432;28.050;2023-08-31T01:46:38;3.0;3.0;
52290;PMS5003;39663;45.432;28.050;2023-08-31T01:47:10;2.0;2.0;
52290;PMS5003;39663;45.432;28.050;2023-08-31T01:47:43;3.0;3.0;
52290;PMS5003;39663;45.432;28.050;2023-08-31T01:48:15;4.0;4.0;
52290;PMS5003;39663;45.432;28.050;2023-08-31T01:48:46;4.0;4.0;
52290;PMS5003;39663;45.432;28.050;2023-08-31T01:49:19;4.0;4.0;
52290;PMS5003;39663;45.432;28.050;2023-08-31T01:49:51;3.0;3.0;
52290;PMS5003;39663;45.432;28.050;2023-08-31T01:50:22;4.0;4.0;
52290;PMS5003;39663;45.432;28.050;2023-08-31T01:50:54;3.0;3.0;
52290;PMS5003;39663;45.432;28.050;2023-08-31T01:51:25;3.0;3.0;
52290;PMS5003;39663;45.432;28.050;2023-08-31T01:51:57;3.0;3.0;
52290;PMS5003;39663;45.432;28.050;2023-08-31T01:52:29;2.0;2.0;
52290;PMS5003;39663;45.432;28.050;2023-08-31T01:53:00;3.0;2.0;
52290;PMS5003;39663;45.432;28.050;2023-08-31T01:53:32;4.0;4.0;
52290;PMS5003;39663;45.432;28.050;2023-08-31T01:54:04;4.0;3.0;
52290;PMS5003;39663;45.432;28.050;2023-08-31T01:54:35;5.0;4.0;
52290;PMS5003;39663;45.432;28.050;2023-08-31T01:55:07;4.0;3.0;
52290;PMS5003;39663;45.432;28.050;2023-08-31T01:55:38;4.0;3.0;
52290;PMS5003;39663;45.432;28.050;2023-08-31T01:56:10;4.0;4.0;
52290;PMS5003;39663;45.432;28.050;2023-08-31T01:56:41;3.0;3.0;
52290;PMS5003;39663;45.432;28.050;2023-08-31T01:57:13;3.0;3.0;
52290;PMS5003;39663;45.432;28.050;2023-08-31T01:57:44;3.0;3.0;
52290;PMS5003;39663;45.432;28.050;2023-08-31T01:58:16;4.0;4.0;
52290;PMS5003;39663;45.432;28.050;2023-08-31T01:58:48;2.0;2.0;
52290;PMS5003;39663;45.432;28.050;2023-08-31T01:59:19;6.0;3.0;
52290;PMS5003;39663;45.432;28.050;2023-08-31T01:59:51;4.0;4.0;
52290;PMS5003;39663;45.432;28.050;2023-08-31T02:00:22;2.0;2.0;
52290;PMS5003;39663;45.432;28.050;2023-08-31T02:00:56;4.0;3.0;
52290;PMS5003;39663;45.432;28.050;2023-08-31T02:01:27;3.0;3.0;
52290;PMS5003;39663;45.432;28.050;2023-08-31T02:01:59;2.0;2.0;
52290;PMS5003;39663;45.432;28.050;2023-08-31T02:02:30;4.0;4.0;
52290;PMS5003;39663;45.432;28.050;2023-08-31T02:03:02;3.0;3.0;
52290;PMS5003;39663;45.432;28.050;2023-08-31T02:03:34;4.0;4.0;
52290;PMS5003;39663;45.432;28.050;2023-08-31T02:04:06;4.0;4.0;
52290;PMS5003;39663;45.432;28.050;2023-08-31T02:04:37;2.0;2.0;
52290;PMS5003;39663;45.432;28.050;2023-08-31T02:05:09;3.0;3.0;
52290;PMS5003;39663;45.432;28.050;2023-08-31T02:05:41;3.0;3.0;
52290;PMS5003;39663;45.432;28.050;2023-08-31T02:06:12;3.0;3.0;
52290;PMS5003;39663;45.432;28.050;2023-08-31T02:06:43;5.0;5.0;
52290;PMS5003;39663;45.432;28.050;2023-08-31T02:07:15;4.0;4.0;
52290;PMS5003;39663;45.432;28.050;2023-08-31T02:07:47;4.0;4.0;
52290;PMS5003;39663;45.432;28.050;2023-08-31T02:08:18;4.0;4.0;
52290;PMS5003;39663;45.432;28.050;2023-08-31T02:08:50;2.0;2.0;
52290;PMS5003;39663;45.432;28.050;2023-08-31T02:09:22;3.0;3.0;
52290;PMS5003;39663;45.432;28.050;2023-08-31T02:09:53;3.0;3.0;
52290;PMS5003;39663;45.432;28.050;2023-08-31T02:10:25;3.0;2.0;
52290;PMS5003;39663;45.432;28.050;2023-08-31T02:10:56;4.0;4.0;
52290;PMS5003;39663;45.432;28.050;2023-08-31T02:11:28;4.0;4.0;
52290;PMS5003;39663;45.432;28.050;2023-08-31T02:12:00;3.0;3.0;
52290;PMS5003;39663;45.432;28.050;2023-08-31T02:12:31;3.0;3.0;
52290;PMS5003;39663;45.432;28.050;2023-08-31T02:13:03;4.0;4.0;
52290;PMS5003;39663;45.432;28.050;2023-08-31T02:13:34;3.0;3.0;
52290;PMS5003;39663;45.432;28.050;2023-08-31T02:14:06;5.0;5.0;
52290;PMS5003;39663;45.432;28.050;2023-08-31T02:14:37;4.0;4.0;
52290;PMS5003;39663;45.432;28.050;2023-08-31T02:15:09;3.0;3.0;
52290;PMS5003;39663;45.432;28.050;2023-08-31T02:15:41;4.0;4.0;
52290;PMS5003;39663;45.432;28.050;2023-08-31T02:16:13;4.0;4.0;
52290;PMS5003;39663;45.432;28.050;2023-08-31T02:16:44;4.0;4.0;
52290;PMS5003;39663;45.432;28.050;2023-08-31T02:17:16;5.0;4.0;
52290;PMS5003;39663;45.432;28.050;2023-08-31T02:17:48;5.0;5.0;
52290;PMS5003;39663;45.432;28.050;2023-08-31T02:18:19;3.0;3.0;
52290;PMS5003;39663;45.432;28.050;2023-08-31T02:18:51;4.0;4.0;
52290;PMS5003;39663;45.432;28.050;2023-08-31T02:19:22;5.0;5.0;
52290;PMS5003;39663;45.432;28.050;2023-08-31T02:19:54;4.0;3.0;
52290;PMS5003;39663;45.432;28.050;2023-08-31T02:20:26;3.0;3.0;
52290;PMS5003;39663;45.432;28.050;2023-08-31T02:20:58;4.0;4.0;
52290;PMS5003;39663;45.432;28.050;2023-08-31T02:21:29;4.0;4.0;
52290;PMS5003;39663;45.432;28.050;2023-08-31T02:22:01;4.0;4.0;
52290;PMS5003;39663;45.432;28.050;2023-08-31T02:22:34;6.0;6.0;
52290;PMS5003;39663;45.432;28.050;2023-08-31T02:23:06;3.0;3.0;
52290;PMS5003;39663;45.432;28.050;2023-08-31T02:23:37;5.0;5.0;
52290;PMS5003;39663;45.432;28.050;2023-08-31T02:24:09;4.0;3.0;
52290;PMS5003;39663;45.432;28.050;2023-08-31T02:24:40;4.0;4.0;
52290;PMS5003;39663;45.432;28.050;2023-08-31T02:25:12;5.0;5.0;
52290;PMS5003;39663;45.432;28.050;2023-08-31T02:25:44;3.0;3.0;
52290;PMS5003;39663;45.432;28.050;2023-08-31T02:26:20;3.0;3.0;
52290;PMS5003;39663;45.432;28.050;2023-08-31T02:26:52;5.0;5.0;
52290;PMS5003;39663;45.432;28.050;2023-08-31T02:27:24;3.0;3.0;
52290;PMS5003;39663;45.432;28.050;2023-08-31T02:27:56;4.0;2.0;
52290;PMS5003;39663;45.432;28.050;2023-08-31T02:28:27;2.0;2.0;
52290;PMS5003;39663;45.432;28.050;2023-08-31T02:28:59;6.0;5.0;
52290;PMS5003;39663;45.432;28.050;2023-08-31T02:29:30;4.0;3.0;
52290;PMS5003;39663;45.432;28.050;2023-08-31T02:30:02;4.0;4.0;
52290;PMS5003;39663;45.432;28.050;2023-08-31T02:30:34;4.0;4.0;
52290;PMS5003;39663;45.432;28.050;2023-08-31T02:31:06;5.0;4.0;
52290;PMS5003;39663;45.432;28.050;2023-08-31T02:31:37;3.0;3.0;
52290;PMS5003;39663;45.432;28.050;2023-08-31T02:32:09;5.0;5.0;
52290;PMS5003;39663;45.432;28.050;2023-08-31T02:32:41;3.0;3.0;
52290;PMS5003;39663;45.432;28.050;2023-08-31T02:33:12;6.0;5.0;
52290;PMS5003;39663;45.432;28.050;2023-08-31T02:33:44;3.0;3.0;
52290;PMS5003;39663;45.432;28.050;2023-08-31T02:34:16;5.0;5.0;
52290;PMS5003;39663;45.432;28.050;2023-08-31T02:34:47;3.0;3.0;
52290;PMS5003;39663;45.432;28.050;2023-08-31T02:35:19;5.0;4.0;
52290;PMS5003;39663;45.432;28.050;2023-08-31T02:35:51;4.0;3.0;
52290;PMS5003;39663;45.432;28.050;2023-08-31T02:36:24;4.0;4.0;
52290;PMS5003;39663;45.432;28.050;2023-08-31T02:36:55;4.0;4.0;
52290;PMS5003;39663;45.432;28.050;2023-08-31T02:37:26;5.0;5.0;
52290;PMS5003;39663;45.432;28.050;2023-08-31T02:37:58;4.0;4.0;
52290;PMS5003;39663;45.432;28.050;2023-08-31T02:38:30;2.0;2.0;
52290;PMS5003;39663;45.432;28.050;2023-08-31T02:39:01;5.0;4.0;
52290;PMS5003;39663;45.432;28.050;2023-08-31T02:39:33;4.0;4.0;
52290;PMS5003;39663;45.432;28.050;2023-08-31T02:40:05;4.0;4.0;
52290;PMS5003;39663;45.432;28.050;2023-08-31T02:40:37;3.0;3.0;
52290;PMS5003;39663;45.432;28.050;2023-08-31T02:41:09;4.0;4.0;
52290;PMS5003;39663;45.432;28.050;2023-08-31T02:41:41;5.0;3.0;
52290;PMS5003;39663;45.432;28.050;2023-08-31T02:42:13;5.0;5.0;
52290;PMS5003;39663;45.432;28.050;2023-08-31T02:42:45;5.0;4.0;
52290;PMS5003;39663;45.432;28.050;2023-08-31T02:43:17;5.0;4.0;
52290;PMS5003;39663;45.432;28.050;2023-08-31T02:43:50;4.0;4.0;
52290;PMS5003;39663;45.432;28.050;2023-08-31T02:44:21;4.0;4.0;
52290;PMS5003;39663;45.432;28.050;2023-08-31T02:44:53;5.0;4.0;
52290;PMS5003;39663;45.432;28.050;2023-08-31T02:45:25;5.0;5.0;
52290;PMS5003;39663;45.432;28.050;2023-08-31T02:46:00;5.0;4.0;
52290;PMS5003;39663;45.432;28.050;2023-08-31T02:46:32;19.0;18.0;
52290;PMS5003;39663;45.432;28.050;2023-08-31T02:47:04;21.0;21.0;
52290;PMS5003;39663;45.432;28.050;2023-08-31T02:47:35;39.0;35.0;
52290;PMS5003;39663;45.432;28.050;2023-08-31T02:48:07;41.0;40.0;
52290;PMS5003;39663;45.432;28.050;2023-08-31T02:48:38;21.0;19.0;
52290;PMS5003;39663;45.432;28.050;2023-08-31T02:49:10;34.0;31.0;
52290;PMS5003;39663;45.432;28.050;2023-08-31T02:49:41;20.0;20.0;
52290;PMS5003;39663;45.432;28.050;2023-08-31T02:50:13;27.0;24.0;
52290;PMS5003;39663;45.432;28.050;2023-08-31T02:50:45;29.0;26.0;
52290;PMS5003;39663;45.432;28.050;2023-08-31T02:51:16;53.0;50.0;
52290;PMS5003;39663;45.432;28.050;2023-08-31T02:51:48;30.0;30.0;
52290;PMS5003;39663;45.432;28.050;2023-08-31T02:52:19;15.0;14.0;
52290;PMS5003;39663;45.432;28.050;2023-08-31T02:52:51;32.0;31.0;
52290;PMS5003;39663;45.432;28.050;2023-08-31T02:53:23;35.0;30.0;
52290;PMS5003;39663;45.432;28.050;2023-08-31T02:53:54;32.0;31.0;
52290;PMS5003;39663;45.432;28.050;2023-08-31T02:54:26;38.0;35.0;
52290;PMS5003;39663;45.432;28.050;2023-08-31T02:54:58;38.0;38.0;
52290;PMS5003;39663;45.432;28.050;2023-08-31T02:55:32;40.0;39.0;
52290;PMS5003;39663;45.432;28.050;2023-08-31T02:56:03;29.0;26.0;
52290;PMS5003;39663;45.432;28.050;2023-08-31T02:56:35;27.0;25.0;
52290;PMS5003;39663;45.432;28.050;2023-08-31T02:57:07;21.0;20.0;
52290;PMS5003;39663;45.432;28.050;2023-08-31T02:57:39;27.0;25.0;
52290;PMS5003;39663;45.432;28.050;2023-08-31T02:58:11;33.0;30.0;
52290;PMS5003;39663;45.432;28.050;2023-08-31T02:58:42;29.0;27.0;
52290;PMS5003;39663;45.432;28.050;2023-08-31T02:59:14;18.0;18.0;
52290;PMS5003;39663;45.432;28.050;2023-08-31T02:59:49;36.0;34.0;
52290;PMS5003;39663;45.432;28.050;2023-08-31T03:00:21;39.0;36.0;
52290;PMS5003;39663;45.432;28.050;2023-08-31T03:00:53;56.0;49.0;
52290;PMS5003;39663;45.432;28.050;2023-08-31T03:01:25;46.0;44.0;
52290;PMS5003;39663;45.432;28.050;2023-08-31T03:01:57;58.0;53.0;
52290;PMS5003;39663;45.432;28.050;2023-08-31T03:02:31;34.0;32.0;
52290;PMS5003;39663;45.432;28.050;2023-08-31T03:03:02;56.0;50.0;
52290;PMS5003;39663;45.432;28.050;2023-08-31T03:03:34;61.0;53.0;
52290;PMS5003;39663;45.432;28.050;2023-08-31T03:04:06;41.0;37.0;
52290;PMS5003;39663;45.432;28.050;2023-08-31T03:04:38;35.0;34.0;
52290;PMS5003;39663;45.432;28.050;2023-08-31T03:05:09;38.0;36.0;
52290;PMS5003;39663;45.432;28.050;2023-08-31T03:05:41;31.0;28.0;
52290;PMS5003;39663;45.432;28.050;2023-08-31T03:06:13;27.0;27.0;
52290;PMS5003;39663;45.432;28.050;2023-08-31T03:06:45;24.0;23.0;
52290;PMS5003;39663;45.432;28.050;2023-08-31T03:07:16;38.0;35.0;
52290;PMS5003;39663;45.432;28.050;2023-08-31T03:07:48;34.0;30.0;
52290;PMS5003;39663;45.432;28.050;2023-08-31T03:08:20;29.0;28.0;
52290;PMS5003;39663;45.432;28.050;2023-08-31T03:08:51;31.0;30.0;
52290;PMS5003;39663;45.432;28.050;2023-08-31T03:09:23;30.0;29.0;
52290;PMS5003;39663;45.432;28.050;2023-08-31T03:09:55;16.0;16.0;
52290;PMS5003;39663;45.432;28.050;2023-08-31T03:10:26;23.0;23.0;
52290;PMS5003;39663;45.432;28.050;2023-08-31T03:10:58;24.0;23.0;
52290;PMS5003;39663;45.432;28.050;2023-08-31T03:11:30;27.0;25.0;
52290;PMS5003;39663;45.432;28.050;2023-08-31T03:12:02;21.0;20.0;
52290;PMS5003;39663;45.432;28.050;2023-08-31T03:12:34;24.0;23.0;
52290;PMS5003;39663;45.432;28.050;2023-08-31T03:13:05;25.0;23.0;
52290;PMS5003;39663;45.432;28.050;2023-08-31T03:13:37;27.0;24.0;
52290;PMS5003;39663;45.432;28.050;2023-08-31T03:14:09;27.0;22.0;
52290;PMS5003;39663;45.432;28.050;2023-08-31T03:14:40;20.0;18.0;
52290;PMS5003;39663;45.432;28.050;2023-08-31T03:15:12;17.0;17.0;
52290;PMS5003;39663;45.432;28.050;2023-08-31T03:15:44;21.0;19.0;
52290;PMS5003;39663;45.432;28.050;2023-08-31T03:16:15;21.0;20.0;
52290;PMS5003;39663;45.432;28.050;2023-08-31T03:16:47;19.0;19.0;
52290;PMS5003;39663;45.432;28.050;2023-08-31T03:17:19;27.0;27.0;
52290;PMS5003;39663;45.432;28.050;2023-08-31T03:17:50;23.0;21.0;
52290;PMS5003;39663;45.432;28.050;2023-08-31T03:18:22;26.0;25.0;
52290;PMS5003;39663;45.432;28.050;2023-08-31T03:18:54;24.0;24.0;
52290;PMS5003;39663;45.432;28.050;2023-08-31T03:19:26;25.0;23.0;
52290;PMS5003;39663;45.432;28.050;2023-08-31T03:19:57;21.0;20.0;
52290;PMS5003;39663;45.432;28.050;2023-08-31T03:20:29;25.0;23.0;
52290;PMS5003;39663;45.432;28.050;2023-08-31T03:21:01;27.0;26.0;
52290;PMS5003;39663;45.432;28.050;2023-08-31T03:21:32;21.0;20.0;
52290;PMS5003;39663;45.432;28.050;2023-08-31T03:22:04;23.0;20.0;
52290;PMS5003;39663;45.432;28.050;2023-08-31T03:22:36;23.0;22.0;
52290;PMS5003;39663;45.432;28.050;2023-08-31T03:23:08;18.0;18.0;
52290;PMS5003;39663;45.432;28.050;2023-08-31T03:23:39;22.0;20.0;
52290;PMS5003;39663;45.432;28.050;2023-08-31T03:24:11;23.0;18.0;
52290;PMS5003;39663;45.432;28.050;2023-08-31T03:24:43;29.0;25.0;
52290;PMS5003;39663;45.432;28.050;2023-08-31T03:25:15;17.0;17.0;
52290;PMS5003;39663;45.432;28.050;2023-08-31T03:25:47;22.0;22.0;
52290;PMS5003;39663;45.432;28.050;2023-08-31T03:26:18;26.0;26.0;